createdAt,value
2018-11-28T00:03:26.771Z,9.30
2018-11-28T00:08:30.300Z,9.50
2018-11-28T00:13:35.688Z,9.27
2018-11-28T00:18:39.586Z,9.53
2018-11-28T00:23:43.169Z,11.00
2018-11-28T00:28:47.450Z,10.83
2018-11-28T00:33:51.017Z,10.30
2018-11-28T00:38:54.825Z,10.30
2018-11-28T00:43:59.029Z,10.30
2018-11-28T00:49:02.606Z,9.87
2018-11-28T00:54:06.981Z,9.23
2018-11-28T00:59:10.673Z,9.30
2018-11-28T01:04:15.869Z,8.23
2018-11-28T01:09:19.437Z,8.60
2018-11-28T01:14:23.003Z,9.93
2018-11-28T01:19:26.603Z,9.97
2018-11-28T01:24:31.262Z,9.70
2018-11-28T01:29:34.886Z,8.20
2018-11-28T01:34:38.518Z,9.53
2018-11-28T01:39:42.091Z,9.30
2018-11-28T01:44:45.919Z,8.60
2018-11-28T01:49:49.576Z,9.07
2018-11-28T01:54:53.142Z,9.27
2018-11-28T01:59:56.966Z,9.70
2018-11-28T02:05:00.546Z,8.90
2018-11-28T02:10:04.509Z,8.80
2018-11-28T02:15:10.226Z,8.20
2018-11-28T02:20:14.726Z,8.83
2018-11-28T02:25:18.598Z,8.50
2018-11-28T02:30:22.603Z,9.03
2018-11-28T02:35:26.480Z,9.90
2018-11-28T02:40:30.694Z,8.23
2018-11-28T02:45:34.294Z,8.77
2018-11-28T02:50:37.909Z,8.17
2018-11-28T02:55:41.521Z,9.37
2018-11-28T03:00:45.153Z,9.70
2018-11-28T03:05:49.154Z,9.97
2018-11-28T03:10:53.333Z,10.07
2018-11-28T03:16:00.915Z,10.07
2018-11-28T03:21:04.530Z,9.50
2018-11-28T03:26:08.142Z,9.37
2018-11-28T03:31:11.940Z,9.67
2018-11-28T03:36:15.619Z,9.20
2018-11-28T03:41:19.201Z,9.90
2018-11-28T03:46:22.805Z,10.23
2018-11-28T03:51:26.519Z,9.03
2018-11-28T03:56:30.350Z,9.20
2018-11-28T04:01:34.272Z,9.70
2018-11-28T04:06:38.061Z,9.97
2018-11-28T04:11:41.636Z,10.00
2018-11-28T04:16:45.253Z,8.73
2018-11-28T04:21:48.819Z,8.90
2018-11-28T04:26:52.439Z,8.20
2018-11-28T04:31:56.046Z,9.30
2018-11-28T04:36:59.618Z,9.00
2018-11-28T04:42:03.663Z,9.33
2018-11-28T04:47:08.266Z,9.67
2018-11-28T04:52:12.145Z,9.40
2018-11-28T04:57:15.785Z,9.70
2018-11-28T05:02:20.178Z,10.30
2018-11-28T05:07:25.895Z,8.73
2018-11-28T05:12:29.963Z,9.00
2018-11-28T05:17:34.242Z,8.80
2018-11-28T05:22:37.827Z,9.50
2018-11-28T05:27:41.399Z,8.80
2018-11-28T05:32:44.991Z,8.83
2018-11-28T05:37:48.755Z,9.17
2018-11-28T05:42:52.461Z,8.60
2018-11-28T05:47:57.104Z,8.83
2018-11-28T05:53:00.755Z,9.50
2018-11-28T05:58:05.403Z,8.80
2018-11-28T06:03:13.534Z,9.37
2018-11-28T06:08:18.695Z,9.90
2018-11-28T06:13:22.277Z,9.90
2018-11-28T06:18:25.867Z,11.63
2018-11-28T06:23:29.429Z,10.43
2018-11-28T06:28:33.395Z,11.13
2018-11-28T06:33:36.985Z,10.10
2018-11-28T06:38:40.915Z,10.67
2018-11-28T06:43:45.331Z,9.33
2018-11-28T06:48:49.549Z,9.30
2018-11-28T06:53:53.430Z,9.10
2018-11-28T06:58:58.626Z,9.27
2018-11-28T07:04:02.248Z,9.77
2018-11-28T07:09:08.097Z,10.17
2018-11-28T07:14:13.525Z,10.10
2018-11-28T07:19:17.124Z,10.37
2018-11-28T07:24:21.183Z,10.23
2018-11-28T07:29:24.750Z,10.07
2018-11-28T07:34:28.293Z,10.20
2018-11-28T07:39:31.863Z,9.60
2018-11-28T07:44:36.166Z,9.50
2018-11-28T07:49:39.770Z,10.30
2018-11-28T07:54:44.082Z,8.37
2018-11-28T07:59:48.570Z,8.60
2018-11-28T08:04:52.186Z,8.90
2018-11-28T08:09:56.043Z,8.37
2018-11-28T08:14:59.643Z,8.97
2018-11-28T08:20:03.654Z,9.40
2018-11-28T08:25:08.834Z,8.57
2018-11-28T08:30:19.902Z,9.63
2018-11-28T08:35:23.842Z,9.40
2018-11-28T08:40:27.887Z,8.23
2018-11-28T08:45:38.689Z,9.20
2018-11-28T08:50:42.513Z,7.70
2018-11-28T08:55:46.179Z,8.47
2018-11-28T09:00:50.088Z,8.63
2018-11-28T09:05:53.691Z,8.47
2018-11-28T09:10:57.265Z,8.73
2018-11-28T09:16:00.839Z,8.60
2018-11-28T09:21:04.767Z,7.93
2018-11-28T09:26:08.627Z,7.87
2018-11-28T09:31:12.177Z,8.17
2018-11-28T09:36:15.749Z,7.93
2018-11-28T09:41:19.351Z,7.37
2018-11-28T09:46:22.946Z,7.60
2018-11-28T09:51:26.809Z,7.93
2018-11-28T09:56:31.053Z,6.70
2018-11-28T10:01:34.645Z,7.13
2018-11-28T10:06:38.217Z,7.93
2018-11-28T10:11:41.886Z,8.37
2018-11-28T10:16:46.436Z,7.10
2018-11-28T10:21:49.678Z,7.90
2018-11-28T10:26:53.241Z,7.63
2018-11-28T10:31:56.812Z,7.53
2018-11-28T10:37:01.118Z,7.43
2018-11-28T10:42:05.162Z,7.60
2018-11-28T10:47:08.745Z,7.67
2018-11-28T10:52:12.546Z,7.20
2018-11-28T10:57:16.191Z,7.30
2018-11-28T11:02:25.744Z,7.73
2018-11-28T11:07:35.711Z,7.70
2018-11-28T11:12:44.766Z,7.70
2018-11-28T11:17:48.377Z,7.63
2018-11-28T11:22:52.081Z,7.80
2018-11-28T11:27:55.688Z,7.83
2018-11-28T11:32:59.303Z,8.03
2018-11-28T11:38:02.997Z,8.77
2018-11-28T11:43:07.284Z,7.40
2018-11-28T11:48:14.153Z,7.53
2018-11-28T11:53:18.113Z,7.90
2018-11-28T11:58:22.426Z,7.60
2018-11-28T12:03:26.231Z,8.33
2018-11-28T12:08:30.156Z,8.20
2018-11-28T12:13:33.740Z,8.10
2018-11-28T12:18:37.394Z,8.03
2018-11-28T12:23:41.732Z,7.53
2018-11-28T12:28:45.519Z,7.87
2018-11-28T12:33:49.381Z,8.80
2018-11-28T12:38:52.987Z,8.00
2018-11-28T12:43:56.579Z,8.30
2018-11-28T12:49:00.796Z,7.90
2018-11-28T12:54:04.655Z,8.77
2018-11-28T12:59:08.255Z,8.30
2018-11-28T13:04:11.842Z,8.13
2018-11-28T13:09:15.431Z,8.23
2018-11-28T13:14:19.373Z,7.57
2018-11-28T13:19:23.054Z,7.83
2018-11-28T13:24:26.743Z,8.60
2018-11-28T13:29:30.337Z,8.30
2018-11-28T13:34:34.101Z,8.30
2018-11-28T13:39:37.931Z,7.47
2018-11-28T13:44:41.522Z,8.30
2018-11-28T13:49:45.467Z,8.50
2018-11-28T13:55:37.445Z,8.27
2018-11-28T13:59:53.298Z,8.37
2018-11-28T14:04:57.359Z,8.10
2018-11-28T14:10:01.243Z,8.10
2018-11-28T14:15:07.433Z,8.07
2018-11-28T14:20:11.862Z,9.30
2018-11-28T14:25:15.491Z,9.00
2018-11-28T14:30:20.339Z,8.83
2018-11-28T14:35:23.980Z,9.73
2018-11-28T14:40:27.787Z,9.43
2018-11-28T14:45:32.961Z,10.60
2018-11-28T14:50:36.626Z,9.17
2018-11-28T14:55:41.079Z,10.03
2018-11-28T15:00:44.937Z,11.70
2018-11-28T15:05:59.603Z,11.93
2018-11-28T15:11:08.030Z,11.67
2018-11-28T15:16:12.316Z,11.20
2018-11-28T15:21:15.983Z,11.73
2018-11-28T15:26:19.618Z,10.03
2018-11-28T15:31:24.138Z,9.90
2018-11-28T15:36:29.083Z,10.43
2018-11-28T15:41:32.646Z,8.77
2018-11-28T15:46:36.530Z,9.83
2018-11-28T15:51:40.415Z,8.77
2018-11-28T15:56:44.263Z,11.30
2018-11-28T16:01:48.177Z,11.70
2018-11-28T16:06:51.997Z,14.90
2018-11-28T16:11:55.902Z,13.50
2018-11-28T16:16:59.852Z,13.70
2018-11-28T16:22:03.694Z,15.17
2018-11-28T16:27:07.725Z,14.57
2018-11-28T16:32:12.299Z,16.00
2018-11-28T16:37:15.924Z,14.50
2018-11-28T16:42:19.507Z,13.87
2018-11-28T16:47:23.308Z,12.80
2018-11-28T16:52:28.067Z,13.50
2018-11-28T16:57:32.086Z,11.87
2018-11-28T17:02:35.764Z,13.83
2018-11-28T17:07:39.361Z,14.67
2018-11-28T17:12:43.350Z,16.20
2018-11-28T17:17:47.006Z,14.20
2018-11-28T17:22:52.647Z,12.90
2018-11-28T17:27:56.259Z,10.43
2018-11-28T17:32:59.923Z,11.13
2018-11-28T17:38:03.798Z,12.90
2018-11-28T17:43:07.861Z,12.73
2018-11-28T17:48:11.497Z,11.17
2018-11-28T17:53:15.780Z,11.10
2018-11-28T17:58:19.471Z,11.23
2018-11-28T18:03:23.106Z,11.20
2018-11-28T18:08:26.977Z,12.10
2018-11-28T18:13:30.618Z,12.47
2018-11-28T18:18:35.237Z,12.20
2018-11-28T18:23:38.844Z,11.77
2018-11-28T18:28:42.509Z,14.17
2018-11-28T18:33:46.117Z,11.97
2018-11-28T18:38:49.789Z,11.50
2018-11-28T18:43:53.354Z,12.23
2018-11-28T18:48:57.049Z,13.03
2018-11-28T18:54:00.621Z,13.47
2018-11-28T18:59:04.261Z,12.00
2018-11-28T19:04:07.850Z,14.17
2018-11-28T19:09:15.665Z,14.10
2018-11-28T19:14:19.261Z,15.67
2018-11-28T19:19:22.830Z,14.57
2018-11-28T19:24:26.754Z,13.00
2018-11-28T19:29:30.413Z,15.10
2018-11-28T19:34:34.046Z,12.97
2018-11-28T19:39:37.605Z,13.37
2018-11-28T19:44:41.972Z,13.07
2018-11-28T19:49:45.573Z,12.50
2018-11-28T19:54:49.244Z,13.27
2018-11-28T19:59:52.842Z,15.97
2018-11-28T20:04:56.758Z,17.90
2018-11-28T20:10:01.413Z,15.10
2018-11-28T20:15:08.701Z,14.50
2018-11-28T20:20:13.769Z,15.40
2018-11-28T20:25:18.946Z,13.13
2018-11-28T20:30:57.939Z,14.00
2018-11-28T20:36:02.587Z,14.33
2018-11-28T20:41:06.414Z,13.30
2018-11-28T20:46:09.984Z,14.80
2018-11-28T20:51:13.905Z,12.43
2018-11-28T20:56:17.524Z,12.97
2018-11-28T21:01:21.134Z,13.57
2018-11-28T21:06:24.685Z,12.63
2018-11-28T21:11:28.375Z,11.80
2018-11-28T21:16:31.968Z,12.40
2018-11-28T21:21:35.736Z,14.10
2018-11-28T21:26:39.331Z,12.63
2018-11-28T21:31:42.988Z,11.60
2018-11-28T21:36:46.579Z,12.57
2018-11-28T21:41:50.543Z,11.93
2018-11-28T21:46:54.161Z,11.70
2018-11-28T21:51:57.950Z,12.70
2018-11-28T21:57:02.318Z,15.17
2018-11-28T22:02:06.581Z,19.10
2018-11-28T22:07:10.493Z,15.13
2018-11-28T22:12:14.111Z,11.93
2018-11-28T22:17:17.749Z,10.90
2018-11-28T22:22:21.397Z,15.00
2018-11-28T22:27:24.960Z,12.63
2018-11-28T22:32:28.567Z,12.80
2018-11-28T22:37:32.140Z,11.90
2018-11-28T22:42:35.797Z,11.40
2018-11-28T22:47:39.390Z,15.13
2018-11-28T22:52:43.396Z,12.80
2018-11-28T22:57:47.049Z,11.70
2018-11-28T23:03:01.929Z,11.80
2018-11-28T23:08:07.401Z,11.70
2018-11-28T23:13:12.684Z,10.57
2018-11-28T23:18:16.313Z,10.80
2018-11-28T23:23:19.895Z,11.30
2018-11-28T23:28:23.827Z,11.47
2018-11-28T23:33:28.349Z,10.93
2018-11-28T23:38:40.924Z,13.50
2018-11-28T23:43:44.492Z,10.93
2018-11-28T23:48:50.947Z,11.00
2018-11-28T23:53:54.514Z,11.70
2018-11-28T23:58:58.073Z,12.23
